Potters Bar, United Kingdom
Current Conditions -  °F | °C
As of 8:50 PM on Thursday 18 Dec 2014 (Local Time) from EGWU Reporting Station
Broken Clouds Broken Clouds  
Wind Chill: 13°   Ceiling: 1400
Heat Index: 13°   Visibility: 6mi
Dew Point: 10°   Wind: 21mph
Humidity: 82%   Direction: 250°WSW
Pressure: 29.83"   Gusts: NA
Location:  51.69°N, 0.18°W
Report Text: EGWU 182050Z AUTO 25018KT 9999 // BKN014/// BKN023/// 13/10 Q1010
Loading
Personal Weather Stations






























Interactive Weather Map New forecast layout! Learn more

10-Day Weather Forecast

Advertisements
Track Severe Weather on mobile